createdAt,value
2022-08-10T00:00:56.062Z,99418.19
2022-08-10T00:03:22.568Z,99420.19
2022-08-10T00:05:52.664Z,99423.75
2022-08-10T00:08:22.737Z,99425.56
2022-08-10T00:10:55.931Z,99419.31
2022-08-10T00:13:25.614Z,99422.84
2022-08-10T00:15:54.862Z,99422.66
2022-08-10T00:18:35.756Z,99414.59
2022-08-10T00:21:08.030Z,99416.31
2022-08-10T00:23:35.247Z,99420.03
2022-08-10T00:26:01.943Z,99427.22
2022-08-10T00:28:28.427Z,99419.19
2022-08-10T00:30:54.931Z,99421.34
2022-08-10T00:33:21.513Z,99405.84
2022-08-10T00:35:48.183Z,99407.75
2022-08-10T00:38:14.757Z,99413.38
2022-08-10T00:40:41.258Z,99410.22
2022-08-10T00:43:07.949Z,99415.63
2022-08-10T00:45:35.887Z,99419.28
2022-08-10T00:48:03.137Z,99417.66
2022-08-10T00:50:30.138Z,99413.22
2022-08-10T00:52:57.051Z,99423.97
2022-08-10T00:55:24.354Z,99411.00
2022-08-10T00:57:55.014Z,99414.97
2022-08-10T01:00:22.530Z,99420.38
2022-08-10T01:02:49.141Z,99411.50
2022-08-10T01:05:15.862Z,99412.63
2022-08-10T01:08:10.597Z,99411.75
2022-08-10T01:10:55.284Z,99410.75
2022-08-10T01:13:44.674Z,99413.44
2022-08-10T01:16:20.774Z,99407.31
2022-08-10T01:19:09.033Z,99417.47
2022-08-10T01:21:58.444Z,99411.59
2022-08-10T01:24:31.359Z,99409.38
2022-08-10T01:26:58.090Z,99405.00
2022-08-10T01:29:38.264Z,99407.81
2022-08-10T01:32:07.157Z,99406.25
2022-08-10T01:34:49.700Z,99406.09
2022-08-10T01:37:20.739Z,99408.63
2022-08-10T01:39:52.109Z,99408.09
2022-08-10T01:42:21.901Z,99404.66
2022-08-10T01:45:02.490Z,99410.81
2022-08-10T01:47:51.655Z,99411.75
2022-08-10T01:50:25.066Z,99410.06
2022-08-10T01:52:56.271Z,99413.69
2022-08-10T01:55:24.941Z,99414.94
2022-08-10T01:57:53.428Z,99414.13
2022-08-10T02:00:20.126Z,99413.16
2022-08-10T02:02:48.705Z,99414.94
2022-08-10T02:05:17.450Z,99423.75
2022-08-10T02:07:46.843Z,99416.06
2022-08-10T02:10:17.076Z,99418.22
2022-08-10T02:12:46.406Z,99424.69
2022-08-10T02:15:17.752Z,99420.34
2022-08-10T02:18:00.139Z,99418.53
2022-08-10T02:20:34.441Z,99418.63
2022-08-10T02:23:19.356Z,99418.72
2022-08-10T02:25:47.845Z,99419.59
2022-08-10T02:28:29.891Z,99414.50
2022-08-10T02:31:06.356Z,99414.44
2022-08-10T02:33:37.350Z,99415.41
2022-08-10T02:36:09.521Z,99411.84
2022-08-10T02:38:59.728Z,99410.00
2022-08-10T02:45:12.116Z,99412.78
2022-08-10T02:45:23.253Z,99413.56
2022-08-10T02:47:51.364Z,99410.09
2022-08-10T02:50:33.866Z,99411.09
2022-08-10T02:53:06.323Z,99397.75
2022-08-10T02:55:43.004Z,99408.53
2022-08-10T02:58:18.025Z,99399.97
2022-08-10T03:00:48.888Z,99401.03
2022-08-10T03:03:23.627Z,99408.91
2022-08-10T03:05:56.805Z,99421.09
2022-08-10T03:08:27.382Z,99415.94
2022-08-10T03:10:56.404Z,99410.75
2022-08-10T03:13:24.476Z,99426.69
2022-08-10T03:15:51.874Z,99422.53
2022-08-10T03:18:22.605Z,99416.47
2022-08-10T03:20:51.206Z,99424.56
2022-08-10T03:23:20.816Z,99426.28
2022-08-10T03:25:54.366Z,99421.16
2022-08-10T03:28:29.331Z,99427.38
2022-08-10T03:30:58.251Z,99423.84
2022-08-10T03:33:29.121Z,99423.91
2022-08-10T03:36:40.097Z,99431.84
2022-08-10T03:38:44.466Z,99430.16
2022-08-10T03:41:16.399Z,99432.75
2022-08-10T03:43:46.422Z,99430.06
2022-08-10T03:46:14.042Z,99434.63
2022-08-10T03:48:48.457Z,99436.53
2022-08-10T03:51:18.342Z,99431.28
2022-08-10T03:54:03.661Z,99431.38
2022-08-10T03:56:32.949Z,99431.16
2022-08-10T03:59:00.649Z,99426.78
2022-08-10T04:02:41.870Z,99427.56
2022-08-10T04:04:19.217Z,99431.38
2022-08-10T04:06:51.622Z,99441.13
2022-08-10T04:09:22.299Z,99434.91
2022-08-10T04:11:48.738Z,99445.50
2022-08-10T04:14:38.171Z,99442.03
2022-08-10T04:17:01.776Z,99442.97
2022-08-10T04:19:32.617Z,99448.19
2022-08-10T04:22:10.342Z,99445.56
2022-08-10T04:24:40.177Z,99442.78
2022-08-10T04:27:07.182Z,99445.41
2022-08-10T04:29:33.901Z,99446.19
2022-08-10T04:32:03.270Z,99440.06
2022-08-10T04:34:31.899Z,99443.41
2022-08-10T04:37:04.334Z,99436.19
2022-08-10T04:39:33.448Z,99443.06
2022-08-10T04:42:00.389Z,99449.06
2022-08-10T04:44:27.169Z,99444.50
2022-08-10T04:46:55.674Z,99442.56
2022-08-10T04:49:54.155Z,99451.13
2022-08-10T04:52:11.000Z,99443.66
2022-08-10T04:54:37.463Z,99450.41
2022-08-10T04:57:04.405Z,99448.41
2022-08-10T04:59:30.848Z,99441.13
2022-08-10T05:02:28.218Z,99446.84
2022-08-10T05:04:43.741Z,99459.66
2022-08-10T05:07:16.289Z,99457.25
2022-08-10T05:10:02.698Z,99455.72
2022-08-10T05:12:32.778Z,99448.75
2022-08-10T05:15:02.591Z,99455.31
2022-08-10T05:17:29.022Z,99445.09
2022-08-10T05:20:04.362Z,99446.97
2022-08-10T05:22:33.837Z,99445.09
2022-08-10T05:25:00.390Z,99455.84
2022-08-10T05:27:26.818Z,99451.25
2022-08-10T05:30:02.097Z,99453.63
2022-08-10T05:32:29.449Z,99453.44
2022-08-10T05:34:56.046Z,99456.66
2022-08-10T05:38:09.315Z,99459.09
2022-08-10T05:40:10.995Z,99458.00
2022-08-10T05:42:37.677Z,99455.38
2022-08-10T05:45:04.808Z,99458.69
2022-08-10T05:48:54.366Z,99462.56
2022-08-10T05:50:21.147Z,99470.34
2022-08-10T05:52:47.906Z,99466.69
2022-08-10T05:55:14.525Z,99468.16
2022-08-10T05:57:44.681Z,99469.28
2022-08-10T06:00:34.975Z,99459.63
2022-08-10T06:03:04.498Z,99465.81
2022-08-10T06:05:34.232Z,99461.13
2022-08-10T06:08:11.728Z,99459.47
2022-08-10T06:12:16.477Z,99459.69
2022-08-10T06:14:12.839Z,99460.28
2022-08-10T06:16:33.329Z,99463.75
2022-08-10T06:19:02.043Z,99468.03
2022-08-10T06:21:28.906Z,99471.16
2022-08-10T06:23:59.185Z,99478.88
2022-08-10T06:26:25.733Z,99475.41
2022-08-10T06:29:07.066Z,99472.56
2022-08-10T06:31:48.767Z,99464.09
2022-08-10T06:34:20.326Z,99473.03
2022-08-10T06:36:47.877Z,99471.16
2022-08-10T06:39:32.958Z,99467.47
2022-08-10T06:42:16.262Z,99478.94
2022-08-10T06:44:57.850Z,99470.97
2022-08-10T06:47:28.959Z,99474.81
2022-08-10T06:49:59.773Z,99465.47
2022-08-10T06:52:27.815Z,99467.50
2022-08-10T06:54:57.309Z,99465.88
2022-08-10T06:57:28.184Z,99467.03
2022-08-10T06:59:59.109Z,99468.41
2022-08-10T07:02:34.267Z,99473.03
2022-08-10T07:05:04.427Z,99474.09
2022-08-10T07:07:37.339Z,99464.34
2022-08-10T07:10:04.570Z,99473.56
2022-08-10T07:12:32.011Z,99473.69
2022-08-10T07:15:00.347Z,99465.84
2022-08-10T07:17:28.581Z,99469.75
2022-08-10T07:19:58.479Z,99473.25
2022-08-10T07:23:01.281Z,99477.13
2022-08-10T07:25:21.417Z,99477.25
2022-08-10T07:27:59.728Z,99482.28
2022-08-10T07:30:32.522Z,99477.44
2022-08-10T07:33:00.902Z,99478.53
2022-08-10T07:35:33.172Z,99479.47
2022-08-10T07:38:07.414Z,99480.56
2022-08-10T07:40:35.334Z,99485.56
2022-08-10T07:43:02.498Z,99478.28
2022-08-10T07:45:33.652Z,99476.84
2022-08-10T07:48:15.284Z,99486.38
2022-08-10T07:50:43.646Z,99478.03
2022-08-10T07:53:23.242Z,99480.88
2022-08-10T07:56:01.579Z,99488.41
2022-08-10T07:58:39.516Z,99476.03
2022-08-10T08:01:14.765Z,99479.00
2022-08-10T08:04:05.531Z,99474.09
2022-08-10T08:06:36.126Z,99475.16
2022-08-10T08:09:04.141Z,99483.72
2022-08-10T08:11:31.995Z,99473.66
2022-08-10T08:13:59.595Z,99478.44
2022-08-10T08:16:26.531Z,99475.78
2022-08-10T08:19:28.228Z,99475.03
2022-08-10T08:24:06.415Z,99471.16
2022-08-10T08:24:33.890Z,99474.88
2022-08-10T08:27:04.051Z,99463.84
2022-08-10T08:29:34.022Z,99470.97
2022-08-10T08:32:03.733Z,99476.78
2022-08-10T08:34:36.794Z,99475.44
2022-08-10T08:37:04.952Z,99471.44
2022-08-10T08:39:33.496Z,99477.34
2022-08-10T08:42:21.445Z,99473.22
2022-08-10T08:45:07.861Z,99473.28
2022-08-10T08:48:04.325Z,99465.03
2022-08-10T08:50:55.238Z,99466.00
2022-08-10T08:54:01.086Z,99464.91
2022-08-10T08:56:58.401Z,99461.28
2022-08-10T08:59:52.457Z,99456.38
2022-08-10T09:02:37.878Z,99459.72
2022-08-10T09:05:15.395Z,99452.78
2022-08-10T09:08:01.919Z,99462.59
2022-08-10T09:10:45.371Z,99457.41
2022-08-10T09:13:30.753Z,99458.47
2022-08-10T09:16:24.577Z,99454.69
2022-08-10T09:19:19.686Z,99465.59
2022-08-10T09:22:18.721Z,99462.44
2022-08-10T09:24:58.694Z,99458.34
2022-08-10T09:27:33.272Z,99446.72
2022-08-10T09:30:07.677Z,99446.59
2022-08-10T09:36:16.527Z,99439.59
2022-08-10T09:36:29.954Z,99433.22
2022-08-10T09:38:56.257Z,99435.03
2022-08-10T09:41:36.831Z,99428.41
2022-08-10T09:44:29.556Z,99414.50
2022-08-10T09:48:01.003Z,99423.66
2022-08-10T09:51:34.969Z,99419.28
2022-08-10T09:54:12.989Z,99420.16
2022-08-10T09:57:24.483Z,99421.53
2022-08-10T10:00:01.484Z,99408.44
2022-08-10T10:02:43.318Z,99407.41
2022-08-10T10:05:50.525Z,99402.94
2022-08-10T10:08:33.168Z,99396.47
2022-08-10T10:11:47.325Z,99394.72
2022-08-10T10:15:25.179Z,99388.78
2022-08-10T10:18:19.080Z,99392.22
2022-08-10T10:21:01.665Z,99390.78
2022-08-10T10:24:22.355Z,99380.50
2022-08-10T10:27:03.602Z,99370.63
2022-08-10T10:29:58.267Z,99374.38
2022-08-10T10:32:58.310Z,99363.78
2022-08-10T10:35:36.810Z,99364.22
2022-08-10T10:38:08.863Z,99361.63
2022-08-10T10:40:44.004Z,99355.63
2022-08-10T10:43:36.216Z,99353.88
2022-08-10T10:46:24.574Z,99360.00
2022-08-10T10:49:09.826Z,99350.47
2022-08-10T10:52:08.240Z,99354.13
2022-08-10T10:54:41.794Z,99342.81
2022-08-10T10:57:59.592Z,99348.03
2022-08-10T11:00:12.691Z,99348.22
2022-08-10T11:03:01.094Z,99354.75
2022-08-10T11:05:50.093Z,99349.94
2022-08-10T11:08:28.786Z,99350.22
2022-08-10T11:11:05.442Z,99356.41
2022-08-10T11:14:29.199Z,99347.53
2022-08-10T11:17:14.515Z,99344.63
2022-08-10T11:20:11.773Z,99352.97
2022-08-10T11:22:57.581Z,99344.91
2022-08-10T11:25:30.842Z,99337.19
2022-08-10T11:28:00.708Z,99336.94
2022-08-10T11:30:52.497Z,99337.25
2022-08-10T11:34:03.973Z,99333.28
2022-08-10T11:36:42.825Z,99334.88
2022-08-10T11:39:21.288Z,99337.31
2022-08-10T11:42:11.699Z,99323.31
2022-08-10T11:44:53.577Z,99325.22
2022-08-10T11:47:46.408Z,99330.06
2022-08-10T11:50:23.823Z,99330.22
2022-08-10T11:52:59.470Z,99325.75
2022-08-10T11:55:29.257Z,99327.56
2022-08-10T11:58:00.055Z,99323.38
2022-08-10T12:00:33.149Z,99323.91
2022-08-10T12:03:04.834Z,99322.72
2022-08-10T12:05:48.276Z,99320.69
2022-08-10T12:10:07.176Z,99316.06
2022-08-10T12:11:24.133Z,99312.19
2022-08-10T12:14:21.978Z,99320.81
2022-08-10T12:17:05.587Z,99315.47
2022-08-10T12:19:59.235Z,99306.59
2022-08-10T12:22:57.573Z,99307.28
2022-08-10T12:25:56.797Z,99298.94
2022-08-10T12:28:50.029Z,99302.91
2022-08-10T12:31:13.514Z,99299.16
2022-08-10T12:34:05.317Z,99299.94
2022-08-10T12:37:00.655Z,99295.56
2022-08-10T12:39:31.080Z,99283.88
2022-08-10T12:42:06.483Z,99283.28
2022-08-10T12:44:43.009Z,99284.94
2022-08-10T12:47:20.131Z,99282.09
2022-08-10T12:50:29.799Z,99288.00
2022-08-10T12:53:06.540Z,99276.19
2022-08-10T12:55:37.305Z,99276.81
2022-08-10T12:58:59.101Z,99272.59
2022-08-10T13:01:15.127Z,99283.78
2022-08-10T13:04:22.364Z,99276.91
2022-08-10T13:06:33.955Z,99277.63
2022-08-10T13:09:09.504Z,99268.47
2022-08-10T13:12:35.232Z,99264.50
2022-08-10T13:15:28.395Z,99262.91
2022-08-10T13:18:18.161Z,99251.06
2022-08-10T13:20:50.639Z,99255.38
2022-08-10T13:23:22.410Z,99248.97
2022-08-10T13:25:51.818Z,99246.16
2022-08-10T13:28:37.135Z,99239.06
2022-08-10T13:31:16.655Z,99234.97
2022-08-10T13:34:38.944Z,99237.81
2022-08-10T13:36:42.736Z,99242.06
2022-08-10T13:39:12.360Z,99239.91
2022-08-10T13:41:41.203Z,99222.31
2022-08-10T13:44:11.345Z,99219.16
2022-08-10T13:46:42.121Z,99217.13
2022-08-10T13:49:10.403Z,99222.25
2022-08-10T13:51:57.274Z,99226.47
2022-08-10T13:54:28.181Z,99223.66
2022-08-10T13:56:56.694Z,99211.97
2022-08-10T14:00:36.266Z,99202.94
2022-08-10T14:02:21.606Z,99201.44
2022-08-10T14:04:48.081Z,99205.59
2022-08-10T14:07:16.964Z,99209.56
2022-08-10T14:09:47.500Z,99210.41
2022-08-10T14:12:15.150Z,99213.06
2022-08-10T14:14:42.961Z,99208.53
2022-08-10T14:17:11.310Z,99204.31
2022-08-10T14:19:43.461Z,99206.66
2022-08-10T14:22:17.064Z,99205.97
2022-08-10T14:24:46.784Z,99194.25
2022-08-10T14:27:18.056Z,99187.66
2022-08-10T14:29:55.384Z,99191.47
2022-08-10T14:32:25.763Z,99182.91
2022-08-10T14:36:20.313Z,99181.63
2022-08-10T14:38:05.810Z,99180.31
2022-08-10T14:40:42.692Z,99178.94
2022-08-10T14:43:28.106Z,99166.69
2022-08-10T14:46:01.514Z,99172.34
2022-08-10T14:48:33.020Z,99173.41
2022-08-10T14:51:01.631Z,99170.31
2022-08-10T14:53:34.687Z,99164.72
2022-08-10T14:56:06.601Z,99164.66
2022-08-10T14:58:38.482Z,99156.72
2022-08-10T15:01:06.821Z,99156.44
2022-08-10T15:03:58.447Z,99163.59
2022-08-10T15:06:30.254Z,99165.84
2022-08-10T15:09:19.443Z,99160.16
2022-08-10T15:12:15.857Z,99164.47
2022-08-10T15:14:42.482Z,99158.31
2022-08-10T15:17:13.647Z,99160.91
2022-08-10T15:20:02.620Z,99162.78
2022-08-10T15:22:37.968Z,99162.78
2022-08-10T15:25:18.675Z,99153.47
2022-08-10T15:27:54.349Z,99154.50
2022-08-10T15:30:29.795Z,99135.81
2022-08-10T15:33:21.217Z,99141.44
2022-08-10T15:36:25.003Z,99145.94
2022-08-10T15:39:04.876Z,99142.22
2022-08-10T15:41:57.414Z,99133.47
2022-08-10T15:44:38.672Z,99130.50
2022-08-10T15:47:10.342Z,99135.91
2022-08-10T15:49:49.726Z,99134.44
2022-08-10T15:52:39.423Z,99133.34
2022-08-10T15:55:43.877Z,99136.53
2022-08-10T15:58:40.361Z,99131.94
2022-08-10T16:02:14.430Z,99118.69
2022-08-10T16:04:50.424Z,99133.72
2022-08-10T16:07:45.365Z,99127.09
2022-08-10T16:10:25.430Z,99123.00
2022-08-10T16:13:51.113Z,99125.09
2022-08-10T16:15:54.387Z,99114.84
2022-08-10T16:18:26.317Z,99116.94
2022-08-10T16:20:56.139Z,99108.94
2022-08-10T16:23:32.328Z,99108.16
2022-08-10T16:26:13.590Z,99118.91
2022-08-10T16:28:55.034Z,99119.75
2022-08-10T16:31:24.680Z,99113.25
2022-08-10T16:33:55.069Z,99102.69
2022-08-10T16:36:29.183Z,99113.13
2022-08-10T16:38:57.426Z,99117.56
2022-08-10T16:42:03.277Z,99107.69
2022-08-10T16:44:18.416Z,99103.56
2022-08-10T16:46:46.025Z,99103.47
2022-08-10T16:49:15.759Z,99104.56
2022-08-10T16:51:47.746Z,99113.00
2022-08-10T16:54:22.391Z,99112.84
2022-08-10T16:56:52.483Z,99119.06
2022-08-10T16:59:24.451Z,99117.59
2022-08-10T17:01:54.258Z,99116.25
2022-08-10T17:04:23.666Z,99125.88
2022-08-10T17:06:58.785Z,99121.59
2022-08-10T17:09:28.843Z,99118.50
2022-08-10T17:11:58.236Z,99118.50
2022-08-10T17:14:27.663Z,99116.66
2022-08-10T17:17:00.208Z,99116.31
2022-08-10T17:19:31.950Z,99109.72
2022-08-10T17:22:02.046Z,99112.19
2022-08-10T17:24:32.882Z,99110.75
2022-08-10T17:28:03.161Z,99113.72
2022-08-10T17:30:03.534Z,99118.75
2022-08-10T17:32:43.931Z,99114.22
2022-08-10T17:35:14.580Z,99103.31
2022-08-10T17:37:47.598Z,99113.84
2022-08-10T17:40:21.468Z,99103.19
2022-08-10T17:42:49.945Z,99106.59
2022-08-10T17:45:47.576Z,99107.59
2022-08-10T17:48:10.988Z,99109.84
2022-08-10T17:50:40.873Z,99108.84
2022-08-10T17:53:14.350Z,99104.19
2022-08-10T17:55:44.696Z,99106.13
2022-08-10T17:58:20.748Z,99109.69
2022-08-10T18:00:51.424Z,99109.31
2022-08-10T18:03:25.342Z,99116.94
2022-08-10T18:06:00.086Z,99114.31
2022-08-10T18:08:34.374Z,99111.22
2022-08-10T18:11:02.923Z,99111.47
2022-08-10T18:13:55.778Z,99116.84
2022-08-10T18:16:28.819Z,99111.19
2022-08-10T18:19:00.541Z,99118.75
2022-08-10T18:21:30.945Z,99108.88
2022-08-10T18:24:14.200Z,99116.69
2022-08-10T18:26:45.944Z,99124.25
2022-08-10T18:29:18.881Z,99118.19
2022-08-10T18:31:49.043Z,99122.66
2022-08-10T18:34:19.951Z,99126.97
2022-08-10T18:36:48.821Z,99122.56
2022-08-10T18:39:21.780Z,99135.00
2022-08-10T18:42:00.803Z,99134.59
2022-08-10T18:44:36.178Z,99124.47
2022-08-10T18:47:13.531Z,99124.47
2022-08-10T18:50:05.550Z,99133.75
2022-08-10T18:52:34.878Z,99136.06
2022-08-10T18:55:35.387Z,99141.53
2022-08-10T18:58:41.861Z,99143.78
2022-08-10T19:01:44.053Z,99139.81
2022-08-10T19:04:19.099Z,99138.41
2022-08-10T19:06:48.560Z,99135.16
2022-08-10T19:09:47.813Z,99143.00
2022-08-10T19:12:31.642Z,99143.59
2022-08-10T19:15:14.762Z,99145.44
2022-08-10T19:18:01.191Z,99152.41
2022-08-10T19:20:35.954Z,99155.72
2022-08-10T19:23:36.896Z,99158.34
2022-08-10T19:26:42.549Z,99154.81
2022-08-10T19:30:08.254Z,99159.66
2022-08-10T19:32:41.268Z,99154.47
2022-08-10T19:35:18.750Z,99151.44
2022-08-10T19:38:32.911Z,99154.41
2022-08-10T19:41:32.258Z,99161.84
2022-08-10T19:44:15.306Z,99159.44
2022-08-10T19:46:54.311Z,99156.78
2022-08-10T19:49:59.506Z,99157.63
2022-08-10T19:52:42.613Z,99162.47
2022-08-10T19:55:26.285Z,99153.69
2022-08-10T19:58:07.619Z,99166.72
2022-08-10T20:00:57.789Z,99153.28
2022-08-10T20:04:09.785Z,99156.94
2022-08-10T20:06:57.732Z,99152.16
2022-08-10T20:09:42.985Z,99158.94
2022-08-10T20:12:38.568Z,99154.81
2022-08-10T20:15:15.711Z,99157.84
2022-08-10T20:18:04.425Z,99161.63
2022-08-10T20:20:35.230Z,99165.25
2022-08-10T20:23:18.880Z,99159.22
2022-08-10T20:25:51.906Z,99163.81
2022-08-10T20:28:35.933Z,99163.59
2022-08-10T20:31:11.521Z,99166.75
2022-08-10T20:34:02.169Z,99167.34
2022-08-10T20:36:33.244Z,99168.78
2022-08-10T20:39:16.504Z,99156.53
2022-08-10T20:42:04.843Z,99157.66
2022-08-10T20:44:52.221Z,99156.59
2022-08-10T20:47:54.257Z,99159.84
2022-08-10T20:50:35.055Z,99164.91
2022-08-10T20:53:08.731Z,99156.88
2022-08-10T20:55:54.444Z,99155.94
2022-08-10T20:58:36.426Z,99161.66
2022-08-10T21:01:18.248Z,99157.06
2022-08-10T21:04:00.415Z,99158.34
2022-08-10T21:06:52.926Z,99151.88
2022-08-10T21:09:48.887Z,99153.22
2022-08-10T21:12:30.596Z,99141.97
2022-08-10T21:15:21.392Z,99141.78
2022-08-10T21:17:53.631Z,99146.34
2022-08-10T21:20:54.082Z,99136.25
2022-08-10T21:23:25.050Z,99143.03
2022-08-10T21:26:09.175Z,99139.31
2022-08-10T21:28:57.901Z,99136.25
2022-08-10T21:31:45.907Z,99147.44
2022-08-10T21:34:54.354Z,99144.38
2022-08-10T21:37:57.149Z,99143.50
2022-08-10T21:40:38.061Z,99145.22
2022-08-10T21:43:44.756Z,99152.97
2022-08-10T21:46:59.123Z,99156.13
2022-08-10T21:50:16.192Z,99158.22
2022-08-10T21:53:22.373Z,99154.59
2022-08-10T21:56:42.797Z,99155.41
2022-08-10T21:59:51.231Z,99149.50
2022-08-10T22:02:49.807Z,99150.19
2022-08-10T22:05:42.642Z,99151.84
2022-08-10T22:08:30.882Z,99143.69
2022-08-10T22:11:17.823Z,99144.66
2022-08-10T22:14:09.315Z,99144.03
2022-08-10T22:18:03.491Z,99145.72
2022-08-10T22:20:29.762Z,99139.75
2022-08-10T22:23:29.365Z,99141.19
2022-08-10T22:27:00.591Z,99154.16
2022-08-10T22:30:21.153Z,99159.25
2022-08-10T22:33:40.689Z,99160.41
2022-08-10T22:37:05.989Z,99158.53
2022-08-10T22:40:16.081Z,99161.72
2022-08-10T22:43:10.561Z,99155.97
2022-08-10T22:46:03.249Z,99158.44
2022-08-10T22:48:51.007Z,99153.38
2022-08-10T22:51:23.198Z,99144.47
2022-08-10T22:54:30.936Z,99151.78
2022-08-10T22:57:19.176Z,99147.91
2022-08-10T22:59:47.131Z,99137.25
2022-08-10T23:02:33.790Z,99152.53
2022-08-10T23:05:12.761Z,99151.88
2022-08-10T23:07:51.596Z,99152.28
2022-08-10T23:10:21.772Z,99142.91
2022-08-10T23:12:55.273Z,99151.84
2022-08-10T23:15:48.995Z,99157.16
2022-08-10T23:18:39.448Z,99160.25
2022-08-10T23:21:07.732Z,99159.47
2022-08-10T23:23:39.702Z,99146.78
2022-08-10T23:26:09.052Z,99153.06
2022-08-10T23:29:04.247Z,99153.72
2022-08-10T23:31:57.587Z,99152.50
2022-08-10T23:34:21.454Z,99157.03
2022-08-10T23:36:50.344Z,99151.03
2022-08-10T23:39:25.486Z,99155.50
2022-08-10T23:41:56.664Z,99157.03
2022-08-10T23:44:24.788Z,99156.25
2022-08-10T23:46:51.957Z,99150.34
2022-08-10T23:49:19.963Z,99142.63
2022-08-10T23:51:55.535Z,99144.75
2022-08-10T23:54:24.801Z,99140.09
2022-08-10T23:56:56.583Z,99141.50
2022-08-10T23:59:29.458Z,99151.28
